sensor_id;sensor_type;location;lat;lon;timestamp;temperature;humidity
19031;DHT22;9648;51.130;13.978;2023-03-02T00:01:52;-3.50;99.90
19031;DHT22;9648;51.130;13.978;2023-03-02T00:04:23;-3.40;99.90
19031;DHT22;9648;51.130;13.978;2023-03-02T00:06:55;-3.40;99.90
19031;DHT22;9648;51.130;13.978;2023-03-02T00:09:22;-3.40;99.90
19031;DHT22;9648;51.130;13.978;2023-03-02T00:11:49;-3.40;99.90
19031;DHT22;9648;51.130;13.978;2023-03-02T00:14:18;-3.40;99.90
19031;DHT22;9648;51.130;13.978;2023-03-02T00:16:44;-3.40;99.90
19031;DHT22;9648;51.130;13.978;2023-03-02T00:19:11;-3.40;99.90
19031;DHT22;9648;51.130;13.978;2023-03-02T00:21:38;-3.40;99.90
19031;DHT22;9648;51.130;13.978;2023-03-02T00:24:06;-3.40;99.90
19031;DHT22;9648;51.130;13.978;2023-03-02T00:26:33;-3.30;99.90
19031;DHT22;9648;51.130;13.978;2023-03-02T00:29:00;-3.30;99.90
19031;DHT22;9648;51.130;13.978;2023-03-02T00:31:28;-3.30;99.90
19031;DHT22;9648;51.130;13.978;2023-03-02T00:33:55;-3.30;99.90
19031;DHT22;9648;51.130;13.978;2023-03-02T00:36:22;-3.40;99.90
19031;DHT22;9648;51.130;13.978;2023-03-02T00:38:49;-3.50;99.90
19031;DHT22;9648;51.130;13.978;2023-03-02T00:41:17;-3.50;99.90
19031;DHT22;9648;51.130;13.978;2023-03-02T00:43:46;-3.60;99.90
19031;DHT22;9648;51.130;13.978;2023-03-02T00:46:14;-3.70;99.90
19031;DHT22;9648;51.130;13.978;2023-03-02T00:48:43;-3.60;99.90
19031;DHT22;9648;51.130;13.978;2023-03-02T00:51:10;-3.40;99.90
19031;DHT22;9648;51.130;13.978;2023-03-02T00:53:38;-3.30;99.90
19031;DHT22;9648;51.130;13.978;2023-03-02T00:56:06;-3.10;99.90
19031;DHT22;9648;51.130;13.978;2023-03-02T00:58:33;-3.10;99.90
19031;DHT22;9648;51.130;13.978;2023-03-02T01:01:04;-3.10;99.90
19031;DHT22;9648;51.130;13.978;2023-03-02T01:03:31;-3.00;99.90
19031;DHT22;9648;51.130;13.978;2023-03-02T01:06:00;-3.00;99.90
19031;DHT22;9648;51.130;13.978;2023-03-02T01:08:26;-2.90;99.90
19031;DHT22;9648;51.130;13.978;2023-03-02T01:10:53;-2.70;99.90
19031;DHT22;9648;51.130;13.978;2023-03-02T01:13:20;-2.60;99.90
19031;DHT22;9648;51.130;13.978;2023-03-02T01:15:59;-2.60;99.90
19031;DHT22;9648;51.130;13.978;2023-03-02T01:18:26;-2.50;99.90
19031;DHT22;9648;51.130;13.978;2023-03-02T01:21:00;-2.40;99.90
19031;DHT22;9648;51.130;13.978;2023-03-02T01:23:28;-2.30;99.90
19031;DHT22;9648;51.130;13.978;2023-03-02T01:25:55;-2.20;99.90
19031;DHT22;9648;51.130;13.978;2023-03-02T01:28:22;-2.20;99.90
19031;DHT22;9648;51.130;13.978;2023-03-02T01:30:48;-2.00;99.90
19031;DHT22;9648;51.130;13.978;2023-03-02T01:33:15;-2.00;99.90
19031;DHT22;9648;51.130;13.978;2023-03-02T01:35:43;-1.90;99.90
19031;DHT22;9648;51.130;13.978;2023-03-02T01:38:11;-1.90;99.90
19031;DHT22;9648;51.130;13.978;2023-03-02T01:40:38;-1.90;99.90
19031;DHT22;9648;51.130;13.978;2023-03-02T01:43:10;-1.90;99.90
19031;DHT22;9648;51.130;13.978;2023-03-02T01:45:46;-1.90;99.90
19031;DHT22;9648;51.130;13.978;2023-03-02T01:48:19;-1.90;99.90
19031;DHT22;9648;51.130;13.978;2023-03-02T01:50:48;-2.00;99.90
19031;DHT22;9648;51.130;13.978;2023-03-02T01:53:16;-2.00;99.90
19031;DHT22;9648;51.130;13.978;2023-03-02T01:55:43;-2.00;99.90
19031;DHT22;9648;51.130;13.978;2023-03-02T01:58:12;-2.00;99.90
19031;DHT22;9648;51.130;13.978;2023-03-02T02:00:41;-2.00;99.90
19031;DHT22;9648;51.130;13.978;2023-03-02T02:03:11;-2.00;99.90
19031;DHT22;9648;51.130;13.978;2023-03-02T02:05:42;-2.00;99.90
19031;DHT22;9648;51.130;13.978;2023-03-02T02:08:09;-2.10;99.90
19031;DHT22;9648;51.130;13.978;2023-03-02T02:10:38;-2.10;99.90
19031;DHT22;9648;51.130;13.978;2023-03-02T02:13:08;-2.20;99.90
19031;DHT22;9648;51.130;13.978;2023-03-02T02:15:35;-2.30;99.90
19031;DHT22;9648;51.130;13.978;2023-03-02T02:18:03;-2.30;99.90
19031;DHT22;9648;51.130;13.978;2023-03-02T02:20:34;-2.30;99.90
19031;DHT22;9648;51.130;13.978;2023-03-02T02:23:13;-2.30;99.90
19031;DHT22;9648;51.130;13.978;2023-03-02T02:26:04;-2.30;99.90
19031;DHT22;9648;51.130;13.978;2023-03-02T02:28:35;-2.30;99.90
19031;DHT22;9648;51.130;13.978;2023-03-02T02:31:06;-2.40;99.90
19031;DHT22;9648;51.130;13.978;2023-03-02T02:33:35;-2.40;99.90
19031;DHT22;9648;51.130;13.978;2023-03-02T02:36:06;-2.50;99.90
19031;DHT22;9648;51.130;13.978;2023-03-02T02:38:34;-2.60;99.90
19031;DHT22;9648;51.130;13.978;2023-03-02T02:41:04;-2.70;99.90
19031;DHT22;9648;51.130;13.978;2023-03-02T02:43:32;-2.90;99.90
19031;DHT22;9648;51.130;13.978;2023-03-02T02:45:59;-2.90;99.90
19031;DHT22;9648;51.130;13.978;2023-03-02T02:48:27;-3.00;99.90
19031;DHT22;9648;51.130;13.978;2023-03-02T02:50:57;-3.10;99.90
19031;DHT22;9648;51.130;13.978;2023-03-02T02:53:29;-3.10;99.90
19031;DHT22;9648;51.130;13.978;2023-03-02T02:55:57;-3.20;99.90
19031;DHT22;9648;51.130;13.978;2023-03-02T02:58:31;-3.30;99.90
19031;DHT22;9648;51.130;13.978;2023-03-02T03:00:59;-3.30;99.90
19031;DHT22;9648;51.130;13.978;2023-03-02T03:03:28;-3.40;99.90
19031;DHT22;9648;51.130;13.978;2023-03-02T03:05:56;-3.50;99.90
19031;DHT22;9648;51.130;13.978;2023-03-02T03:08:53;-3.50;99.90
19031;DHT22;9648;51.130;13.978;2023-03-02T03:11:22;-3.60;99.90
19031;DHT22;9648;51.130;13.978;2023-03-02T03:13:54;-3.60;99.90
19031;DHT22;9648;51.130;13.978;2023-03-02T03:16:23;-3.60;99.90
19031;DHT22;9648;51.130;13.978;2023-03-02T03:18:53;-3.70;99.90
19031;DHT22;9648;51.130;13.978;2023-03-02T03:21:21;-3.70;99.90
19031;DHT22;9648;51.130;13.978;2023-03-02T03:23:48;-3.70;99.90
19031;DHT22;9648;51.130;13.978;2023-03-02T03:26:15;-3.80;99.90
19031;DHT22;9648;51.130;13.978;2023-03-02T03:28:42;-3.80;99.90
19031;DHT22;9648;51.130;13.978;2023-03-02T03:31:10;-3.80;99.90
19031;DHT22;9648;51.130;13.978;2023-03-02T03:33:37;-3.90;99.90
19031;DHT22;9648;51.130;13.978;2023-03-02T03:36:04;-3.90;99.90
19031;DHT22;9648;51.130;13.978;2023-03-02T03:38:34;-4.00;99.90
19031;DHT22;9648;51.130;13.978;2023-03-02T03:41:04;-4.00;99.90
19031;DHT22;9648;51.130;13.978;2023-03-02T03:43:30;-4.00;99.90
19031;DHT22;9648;51.130;13.978;2023-03-02T03:45:57;-4.00;99.90
19031;DHT22;9648;51.130;13.978;2023-03-02T03:48:25;-3.90;99.90
19031;DHT22;9648;51.130;13.978;2023-03-02T03:50:52;-3.80;99.90
19031;DHT22;9648;51.130;13.978;2023-03-02T03:53:19;-3.70;99.90
19031;DHT22;9648;51.130;13.978;2023-03-02T03:55:45;-3.70;99.90
19031;DHT22;9648;51.130;13.978;2023-03-02T03:58:12;-3.70;99.90
19031;DHT22;9648;51.130;13.978;2023-03-02T04:00:41;-3.60;99.90
19031;DHT22;9648;51.130;13.978;2023-03-02T04:03:07;-3.50;99.90
19031;DHT22;9648;51.130;13.978;2023-03-02T04:05:35;-3.40;99.90
19031;DHT22;9648;51.130;13.978;2023-03-02T04:08:02;-3.30;99.90
19031;DHT22;9648;51.130;13.978;2023-03-02T04:10:29;-3.20;99.90
19031;DHT22;9648;51.130;13.978;2023-03-02T04:12:56;-3.20;99.90
19031;DHT22;9648;51.130;13.978;2023-03-02T04:15:23;-3.10;99.90
19031;DHT22;9648;51.130;13.978;2023-03-02T04:17:49;-3.00;99.90
19031;DHT22;9648;51.130;13.978;2023-03-02T04:20:20;-3.00;99.90
19031;DHT22;9648;51.130;13.978;2023-03-02T04:22:52;-2.90;99.90
19031;DHT22;9648;51.130;13.978;2023-03-02T04:25:22;-2.90;99.90
19031;DHT22;9648;51.130;13.978;2023-03-02T04:27:50;-2.90;99.90
19031;DHT22;9648;51.130;13.978;2023-03-02T04:30:21;-2.90;99.90
19031;DHT22;9648;51.130;13.978;2023-03-02T04:32:50;-2.90;99.90
19031;DHT22;9648;51.130;13.978;2023-03-02T04:35:17;-3.00;99.90
19031;DHT22;9648;51.130;13.978;2023-03-02T04:37:44;-3.00;99.90
19031;DHT22;9648;51.130;13.978;2023-03-02T04:40:13;-3.00;99.90
19031;DHT22;9648;51.130;13.978;2023-03-02T04:42:40;-3.00;99.90
19031;DHT22;9648;51.130;13.978;2023-03-02T04:45:09;-3.00;99.90
19031;DHT22;9648;51.130;13.978;2023-03-02T04:47:36;-2.90;99.90
19031;DHT22;9648;51.130;13.978;2023-03-02T04:50:04;-2.80;99.90
19031;DHT22;9648;51.130;13.978;2023-03-02T04:52:30;-2.80;99.90
19031;DHT22;9648;51.130;13.978;2023-03-02T04:54:57;-2.70;99.90
19031;DHT22;9648;51.130;13.978;2023-03-02T04:57:28;-2.70;99.90
19031;DHT22;9648;51.130;13.978;2023-03-02T04:59:55;-2.60;99.90
19031;DHT22;9648;51.130;13.978;2023-03-02T05:02:21;-2.60;99.90
19031;DHT22;9648;51.130;13.978;2023-03-02T05:04:48;-2.60;99.90
19031;DHT22;9648;51.130;13.978;2023-03-02T05:07:15;-2.70;99.90
19031;DHT22;9648;51.130;13.978;2023-03-02T05:09:42;-2.70;99.90
19031;DHT22;9648;51.130;13.978;2023-03-02T05:12:08;-2.70;99.90
19031;DHT22;9648;51.130;13.978;2023-03-02T05:14:37;-2.70;99.90
19031;DHT22;9648;51.130;13.978;2023-03-02T05:17:03;-2.90;99.90
19031;DHT22;9648;51.130;13.978;2023-03-02T05:19:30;-3.00;99.90
19031;DHT22;9648;51.130;13.978;2023-03-02T05:21:57;-3.10;99.90
19031;DHT22;9648;51.130;13.978;2023-03-02T05:24:24;-3.20;99.90
19031;DHT22;9648;51.130;13.978;2023-03-02T05:26:51;-3.30;99.90
19031;DHT22;9648;51.130;13.978;2023-03-02T05:29:17;-3.30;99.90
19031;DHT22;9648;51.130;13.978;2023-03-02T05:31:46;-3.30;99.90
19031;DHT22;9648;51.130;13.978;2023-03-02T05:34:14;-3.40;99.90
19031;DHT22;9648;51.130;13.978;2023-03-02T05:36:42;-3.40;99.90
19031;DHT22;9648;51.130;13.978;2023-03-02T05:39:09;-3.40;99.90
19031;DHT22;9648;51.130;13.978;2023-03-02T05:41:37;-3.50;99.90
19031;DHT22;9648;51.130;13.978;2023-03-02T05:44:04;-3.50;99.90
19031;DHT22;9648;51.130;13.978;2023-03-02T05:46:34;-3.50;99.90
19031;DHT22;9648;51.130;13.978;2023-03-02T05:49:02;-3.60;99.90
19031;DHT22;9648;51.130;13.978;2023-03-02T05:51:30;-3.60;99.90
19031;DHT22;9648;51.130;13.978;2023-03-02T05:53:57;-3.70;99.90
19031;DHT22;9648;51.130;13.978;2023-03-02T05:56:24;-3.80;99.90
19031;DHT22;9648;51.130;13.978;2023-03-02T05:58:50;-3.80;99.90
19031;DHT22;9648;51.130;13.978;2023-03-02T06:01:17;-3.90;99.90
19031;DHT22;9648;51.130;13.978;2023-03-02T06:03:44;-3.80;99.90
19031;DHT22;9648;51.130;13.978;2023-03-02T06:06:12;-3.90;99.90
19031;DHT22;9648;51.130;13.978;2023-03-02T06:08:39;-4.00;99.90
19031;DHT22;9648;51.130;13.978;2023-03-02T06:11:06;-4.00;99.90
19031;DHT22;9648;51.130;13.978;2023-03-02T06:13:34;-4.20;99.90
19031;DHT22;9648;51.130;13.978;2023-03-02T06:16:01;-4.20;99.90
19031;DHT22;9648;51.130;13.978;2023-03-02T06:18:28;-4.20;99.90
19031;DHT22;9648;51.130;13.978;2023-03-02T06:20:54;-4.20;99.90
19031;DHT22;9648;51.130;13.978;2023-03-02T06:23:23;-4.20;99.90
19031;DHT22;9648;51.130;13.978;2023-03-02T06:25:49;-4.20;99.90
19031;DHT22;9648;51.130;13.978;2023-03-02T06:28:19;-4.20;99.90
19031;DHT22;9648;51.130;13.978;2023-03-02T06:30:46;-4.20;99.90
19031;DHT22;9648;51.130;13.978;2023-03-02T06:33:14;-4.20;99.90
19031;DHT22;9648;51.130;13.978;2023-03-02T06:35:41;-4.20;99.90
19031;DHT22;9648;51.130;13.978;2023-03-02T06:38:07;-4.20;99.90
19031;DHT22;9648;51.130;13.978;2023-03-02T06:40:38;-4.20;99.90
19031;DHT22;9648;51.130;13.978;2023-03-02T06:43:05;-4.10;99.90
19031;DHT22;9648;51.130;13.978;2023-03-02T06:45:31;-4.10;99.90
19031;DHT22;9648;51.130;13.978;2023-03-02T06:48:01;-4.10;99.90
19031;DHT22;9648;51.130;13.978;2023-03-02T06:50:28;-4.10;99.90
19031;DHT22;9648;51.130;13.978;2023-03-02T06:52:55;-4.00;99.90
19031;DHT22;9648;51.130;13.978;2023-03-02T06:55:22;-3.90;99.90
19031;DHT22;9648;51.130;13.978;2023-03-02T06:57:50;-3.80;99.90
19031;DHT22;9648;51.130;13.978;2023-03-02T07:00:20;-3.80;99.90
19031;DHT22;9648;51.130;13.978;2023-03-02T07:02:53;-3.70;99.90
19031;DHT22;9648;51.130;13.978;2023-03-02T07:05:20;-3.60;99.90
19031;DHT22;9648;51.130;13.978;2023-03-02T07:07:47;-3.50;99.90
19031;DHT22;9648;51.130;13.978;2023-03-02T07:10:14;-3.50;99.90
19031;DHT22;9648;51.130;13.978;2023-03-02T07:12:41;-3.40;99.90
19031;DHT22;9648;51.130;13.978;2023-03-02T07:15:10;-3.30;99.90
19031;DHT22;9648;51.130;13.978;2023-03-02T07:17:38;-3.20;99.90
19031;DHT22;9648;51.130;13.978;2023-03-02T07:20:06;-3.10;99.90
19031;DHT22;9648;51.130;13.978;2023-03-02T07:22:33;-2.90;99.90
19031;DHT22;9648;51.130;13.978;2023-03-02T07:25:00;-2.70;99.90
19031;DHT22;9648;51.130;13.978;2023-03-02T07:27:27;-2.60;99.90
19031;DHT22;9648;51.130;13.978;2023-03-02T07:29:53;-2.40;99.90
19031;DHT22;9648;51.130;13.978;2023-03-02T07:32:21;-2.30;99.90
19031;DHT22;9648;51.130;13.978;2023-03-02T07:34:48;-2.20;99.90
19031;DHT22;9648;51.130;13.978;2023-03-02T07:37:15;-2.00;99.90
19031;DHT22;9648;51.130;13.978;2023-03-02T07:39:42;-1.90;99.90
19031;DHT22;9648;51.130;13.978;2023-03-02T07:42:10;-1.80;99.90
19031;DHT22;9648;51.130;13.978;2023-03-02T07:44:37;-1.50;99.90
19031;DHT22;9648;51.130;13.978;2023-03-02T07:47:04;-1.30;99.90
19031;DHT22;9648;51.130;13.978;2023-03-02T07:49:32;-1.20;99.90
19031;DHT22;9648;51.130;13.978;2023-03-02T07:51:59;-1.00;99.90
19031;DHT22;9648;51.130;13.978;2023-03-02T07:54:26;-0.80;99.90
19031;DHT22;9648;51.130;13.978;2023-03-02T07:56:55;-0.70;99.90
19031;DHT22;9648;51.130;13.978;2023-03-02T07:59:22;-0.50;99.90
19031;DHT22;9648;51.130;13.978;2023-03-02T08:01:48;-0.40;99.90
19031;DHT22;9648;51.130;13.978;2023-03-02T08:04:15;-0.30;99.90
19031;DHT22;9648;51.130;13.978;2023-03-02T08:06:43;-0.20;99.90
19031;DHT22;9648;51.130;13.978;2023-03-02T08:09:10;-0.10;99.90
19031;DHT22;9648;51.130;13.978;2023-03-02T08:11:37;0.00;99.90
19031;DHT22;9648;51.130;13.978;2023-03-02T08:14:04;0.10;99.90
19031;DHT22;9648;51.130;13.978;2023-03-02T08:16:30;0.20;99.90
19031;DHT22;9648;51.130;13.978;2023-03-02T08:18:57;0.30;99.90
19031;DHT22;9648;51.130;13.978;2023-03-02T08:21:25;0.50;99.90
19031;DHT22;9648;51.130;13.978;2023-03-02T08:23:53;0.50;99.90
19031;DHT22;9648;51.130;13.978;2023-03-02T08:26:20;0.60;99.90
19031;DHT22;9648;51.130;13.978;2023-03-02T08:28:46;0.70;99.90
19031;DHT22;9648;51.130;13.978;2023-03-02T08:31:13;0.90;99.90
19031;DHT22;9648;51.130;13.978;2023-03-02T08:33:40;1.00;99.90
19031;DHT22;9648;51.130;13.978;2023-03-02T08:36:10;1.10;99.90
19031;DHT22;9648;51.130;13.978;2023-03-02T08:38:37;1.20;99.90
19031;DHT22;9648;51.130;13.978;2023-03-02T08:41:07;1.30;99.90
19031;DHT22;9648;51.130;13.978;2023-03-02T08:43:35;1.40;99.90
19031;DHT22;9648;51.130;13.978;2023-03-02T08:46:02;1.50;99.90
19031;DHT22;9648;51.130;13.978;2023-03-02T08:48:30;1.50;99.90
19031;DHT22;9648;51.130;13.978;2023-03-02T08:50:58;1.60;99.90
19031;DHT22;9648;51.130;13.978;2023-03-02T08:53:27;1.60;99.90
19031;DHT22;9648;51.130;13.978;2023-03-02T08:55:54;1.60;99.90
19031;DHT22;9648;51.130;13.978;2023-03-02T08:58:23;1.70;99.90
19031;DHT22;9648;51.130;13.978;2023-03-02T09:00:52;1.80;99.90
19031;DHT22;9648;51.130;13.978;2023-03-02T09:03:22;1.80;99.90
19031;DHT22;9648;51.130;13.978;2023-03-02T09:05:48;1.90;99.90
19031;DHT22;9648;51.130;13.978;2023-03-02T09:08:15;1.90;99.90
19031;DHT22;9648;51.130;13.978;2023-03-02T09:10:45;2.00;99.40
19031;DHT22;9648;51.130;13.978;2023-03-02T09:13:11;2.10;99.90
19031;DHT22;9648;51.130;13.978;2023-03-02T09:15:39;2.10;99.90
19031;DHT22;9648;51.130;13.978;2023-03-02T09:18:06;2.20;99.90
19031;DHT22;9648;51.130;13.978;2023-03-02T09:20:33;2.30;98.90
19031;DHT22;9648;51.130;13.978;2023-03-02T09:23:02;2.40;99.70
19031;DHT22;9648;51.130;13.978;2023-03-02T09:25:29;2.50;97.00
19031;DHT22;9648;51.130;13.978;2023-03-02T09:27:56;2.50;97.20
19031;DHT22;9648;51.130;13.978;2023-03-02T09:30:22;2.60;96.00
19031;DHT22;9648;51.130;13.978;2023-03-02T09:32:50;2.70;96.40
19031;DHT22;9648;51.130;13.978;2023-03-02T09:35:17;2.70;96.80
19031;DHT22;9648;51.130;13.978;2023-03-02T09:37:44;2.80;94.40
19031;DHT22;9648;51.130;13.978;2023-03-02T09:40:16;2.90;92.40
19031;DHT22;9648;51.130;13.978;2023-03-02T09:45:54;3.00;86.80
19031;DHT22;9648;51.130;13.978;2023-03-02T09:48:34;3.10;82.30
19031;DHT22;9648;51.130;13.978;2023-03-02T09:51:11;3.10;73.60
19031;DHT22;9648;51.130;13.978;2023-03-02T09:53:47;3.10;72.70
19031;DHT22;9648;51.130;13.978;2023-03-02T09:56:17;3.20;68.70
19031;DHT22;9648;51.130;13.978;2023-03-02T09:58:53;3.20;72.50
19031;DHT22;9648;51.130;13.978;2023-03-02T10:01:31;3.20;70.00
19031;DHT22;9648;51.130;13.978;2023-03-02T10:04:12;3.30;65.90
19031;DHT22;9648;51.130;13.978;2023-03-02T10:06:40;3.30;73.10
19031;DHT22;9648;51.130;13.978;2023-03-02T10:09:08;3.40;73.10
19031;DHT22;9648;51.130;13.978;2023-03-02T10:11:43;3.50;71.00
19031;DHT22;9648;51.130;13.978;2023-03-02T10:14:19;3.50;73.00
19031;DHT22;9648;51.130;13.978;2023-03-02T10:16:49;3.60;68.00
19031;DHT22;9648;51.130;13.978;2023-03-02T10:19:22;3.60;67.40
19031;DHT22;9648;51.130;13.978;2023-03-02T10:21:55;3.70;70.40
19031;DHT22;9648;51.130;13.978;2023-03-02T10:24:28;3.70;75.10
19031;DHT22;9648;51.130;13.978;2023-03-02T10:26:58;3.70;71.10
19031;DHT22;9648;51.130;13.978;2023-03-02T10:29:37;3.80;72.30
19031;DHT22;9648;51.130;13.978;2023-03-02T10:32:15;3.80;75.10
19031;DHT22;9648;51.130;13.978;2023-03-02T10:34:45;3.90;68.30
19031;DHT22;9648;51.130;13.978;2023-03-02T10:37:14;3.90;70.30
19031;DHT22;9648;51.130;13.978;2023-03-02T10:39:42;3.90;73.10
19031;DHT22;9648;51.130;13.978;2023-03-02T10:42:14;4.00;73.10
19031;DHT22;9648;51.130;13.978;2023-03-02T10:44:45;4.10;75.60
19031;DHT22;9648;51.130;13.978;2023-03-02T10:47:19;4.10;72.20
19031;DHT22;9648;51.130;13.978;2023-03-02T10:49:48;4.10;67.80
19031;DHT22;9648;51.130;13.978;2023-03-02T10:52:16;4.00;71.20
19031;DHT22;9648;51.130;13.978;2023-03-02T10:54:43;4.10;69.90
19031;DHT22;9648;51.130;13.978;2023-03-02T10:57:27;4.20;78.70
19031;DHT22;9648;51.130;13.978;2023-03-02T10:59:58;4.20;71.00
19031;DHT22;9648;51.130;13.978;2023-03-02T11:02:27;4.20;71.90
19031;DHT22;9648;51.130;13.978;2023-03-02T11:04:57;4.30;71.60
19031;DHT22;9648;51.130;13.978;2023-03-02T11:07:26;4.30;74.80
19031;DHT22;9648;51.130;13.978;2023-03-02T11:10:01;4.30;72.00
19031;DHT22;9648;51.130;13.978;2023-03-02T11:12:29;4.30;77.90
19031;DHT22;9648;51.130;13.978;2023-03-02T11:15:17;4.30;70.70
19031;DHT22;9648;51.130;13.978;2023-03-02T11:17:46;4.40;72.30
19031;DHT22;9648;51.130;13.978;2023-03-02T11:20:19;4.40;71.10
19031;DHT22;9648;51.130;13.978;2023-03-02T11:22:53;4.30;70.20
19031;DHT22;9648;51.130;13.978;2023-03-02T11:25:25;4.40;76.50
19031;DHT22;9648;51.130;13.978;2023-03-02T11:27:57;4.40;76.30
19031;DHT22;9648;51.130;13.978;2023-03-02T11:30:25;4.50;81.50
19031;DHT22;9648;51.130;13.978;2023-03-02T11:32:58;4.60;75.90
19031;DHT22;9648;51.130;13.978;2023-03-02T11:35:32;4.60;82.50
19031;DHT22;9648;51.130;13.978;2023-03-02T11:38:03;4.70;76.00
19031;DHT22;9648;51.130;13.978;2023-03-02T11:40:40;4.70;79.00
19031;DHT22;9648;51.130;13.978;2023-03-02T11:43:11;4.70;81.50
19031;DHT22;9648;51.130;13.978;2023-03-02T11:45:42;4.70;75.20
19031;DHT22;9648;51.130;13.978;2023-03-02T11:48:17;4.70;72.70
19031;DHT22;9648;51.130;13.978;2023-03-02T11:50:52;4.70;71.50
19031;DHT22;9648;51.130;13.978;2023-03-02T11:53:20;4.70;66.90
19031;DHT22;9648;51.130;13.978;2023-03-02T11:55:49;4.70;70.50
19031;DHT22;9648;51.130;13.978;2023-03-02T11:58:17;4.80;72.70
19031;DHT22;9648;51.130;13.978;2023-03-02T12:00:47;4.80;71.10
19031;DHT22;9648;51.130;13.978;2023-03-02T12:03:23;4.80;70.40
19031;DHT22;9648;51.130;13.978;2023-03-02T12:06:05;4.90;74.90
19031;DHT22;9648;51.130;13.978;2023-03-02T12:08:35;5.00;73.80
19031;DHT22;9648;51.130;13.978;2023-03-02T12:11:05;5.00;76.00
19031;DHT22;9648;51.130;13.978;2023-03-02T12:13:34;5.10;74.70
19031;DHT22;9648;51.130;13.978;2023-03-02T12:16:01;5.20;70.70
19031;DHT22;9648;51.130;13.978;2023-03-02T12:18:45;5.20;71.10
19031;DHT22;9648;51.130;13.978;2023-03-02T12:21:16;5.30;67.80
19031;DHT22;9648;51.130;13.978;2023-03-02T12:23:55;5.30;71.90
19031;DHT22;9648;51.130;13.978;2023-03-02T12:26:30;5.30;67.90
19031;DHT22;9648;51.130;13.978;2023-03-02T12:29:00;5.30;74.10
19031;DHT22;9648;51.130;13.978;2023-03-02T12:31:40;5.40;71.20
19031;DHT22;9648;51.130;13.978;2023-03-02T12:34:26;5.40;70.30
19031;DHT22;9648;51.130;13.978;2023-03-02T12:36:59;5.40;75.60
19031;DHT22;9648;51.130;13.978;2023-03-02T12:39:42;5.40;76.70
19031;DHT22;9648;51.130;13.978;2023-03-02T12:42:30;5.50;77.60
19031;DHT22;9648;51.130;13.978;2023-03-02T12:45:03;5.50;69.90
19031;DHT22;9648;51.130;13.978;2023-03-02T12:47:37;5.60;77.00
19031;DHT22;9648;51.130;13.978;2023-03-02T12:50:17;5.60;80.40
19031;DHT22;9648;51.130;13.978;2023-03-02T12:52:56;5.60;81.60
19031;DHT22;9648;51.130;13.978;2023-03-02T12:55:23;5.60;76.80
19031;DHT22;9648;51.130;13.978;2023-03-02T12:57:51;5.60;76.60
19031;DHT22;9648;51.130;13.978;2023-03-02T13:00:21;5.60;79.10
19031;DHT22;9648;51.130;13.978;2023-03-02T13:02:49;5.60;75.00
19031;DHT22;9648;51.130;13.978;2023-03-02T13:05:19;5.60;78.60
19031;DHT22;9648;51.130;13.978;2023-03-02T13:07:53;5.60;74.70
19031;DHT22;9648;51.130;13.978;2023-03-02T13:10:26;5.70;72.80
19031;DHT22;9648;51.130;13.978;2023-03-02T13:12:53;5.80;71.80
19031;DHT22;9648;51.130;13.978;2023-03-02T13:15:21;5.80;70.50
19031;DHT22;9648;51.130;13.978;2023-03-02T13:17:53;5.80;69.30
19031;DHT22;9648;51.130;13.978;2023-03-02T13:20:21;5.90;69.40
19031;DHT22;9648;51.130;13.978;2023-03-02T13:22:51;5.90;68.50
19031;DHT22;9648;51.130;13.978;2023-03-02T13:25:25;6.00;66.90
19031;DHT22;9648;51.130;13.978;2023-03-02T13:27:53;6.00;67.10
19031;DHT22;9648;51.130;13.978;2023-03-02T13:30:25;6.10;68.90
19031;DHT22;9648;51.130;13.978;2023-03-02T13:32:56;6.10;68.10
19031;DHT22;9648;51.130;13.978;2023-03-02T13:35:29;6.10;64.00
19031;DHT22;9648;51.130;13.978;2023-03-02T13:38:00;6.10;64.70
19031;DHT22;9648;51.130;13.978;2023-03-02T13:40:42;6.10;65.40
19031;DHT22;9648;51.130;13.978;2023-03-02T13:43:33;6.10;62.70
19031;DHT22;9648;51.130;13.978;2023-03-02T13:46:02;6.10;63.40
19031;DHT22;9648;51.130;13.978;2023-03-02T13:48:32;6.10;63.80
19031;DHT22;9648;51.130;13.978;2023-03-02T13:51:01;6.10;61.50
19031;DHT22;9648;51.130;13.978;2023-03-02T13:53:31;6.10;61.80
19031;DHT22;9648;51.130;13.978;2023-03-02T13:56:03;6.10;60.70
19031;DHT22;9648;51.130;13.978;2023-03-02T13:58:35;6.20;64.40
19031;DHT22;9648;51.130;13.978;2023-03-02T14:01:04;6.20;62.80
19031;DHT22;9648;51.130;13.978;2023-03-02T14:03:34;6.20;63.30
19031;DHT22;9648;51.130;13.978;2023-03-02T14:06:00;6.30;63.10
19031;DHT22;9648;51.130;13.978;2023-03-02T14:08:27;6.30;64.60
19031;DHT22;9648;51.130;13.978;2023-03-02T14:10:56;6.30;63.70
19031;DHT22;9648;51.130;13.978;2023-03-02T14:13:33;6.40;59.30
19031;DHT22;9648;51.130;13.978;2023-03-02T14:16:01;6.40;59.60
19031;DHT22;9648;51.130;13.978;2023-03-02T14:18:34;6.40;57.60
19031;DHT22;9648;51.130;13.978;2023-03-02T14:21:05;6.50;58.30
19031;DHT22;9648;51.130;13.978;2023-03-02T14:23:35;6.50;59.20
19031;DHT22;9648;51.130;13.978;2023-03-02T14:26:12;6.50;58.70
19031;DHT22;9648;51.130;13.978;2023-03-02T14:28:44;6.50;58.80
19031;DHT22;9648;51.130;13.978;2023-03-02T14:31:11;6.50;59.50
19031;DHT22;9648;51.130;13.978;2023-03-02T14:33:38;6.50;61.40
19031;DHT22;9648;51.130;13.978;2023-03-02T14:36:11;6.60;61.00
19031;DHT22;9648;51.130;13.978;2023-03-02T14:38:39;6.60;58.90
19031;DHT22;9648;51.130;13.978;2023-03-02T14:41:11;6.60;61.50
19031;DHT22;9648;51.130;13.978;2023-03-02T14:43:39;6.60;62.10
19031;DHT22;9648;51.130;13.978;2023-03-02T14:46:06;6.60;66.00
19031;DHT22;9648;51.130;13.978;2023-03-02T14:48:32;6.60;64.30
19031;DHT22;9648;51.130;13.978;2023-03-02T14:51:02;6.60;68.90
19031;DHT22;9648;51.130;13.978;2023-03-02T14:53:32;6.60;65.40
19031;DHT22;9648;51.130;13.978;2023-03-02T14:56:00;6.60;66.60
19031;DHT22;9648;51.130;13.978;2023-03-02T14:58:30;6.60;66.40
19031;DHT22;9648;51.130;13.978;2023-03-02T15:00:58;6.60;65.80
19031;DHT22;9648;51.130;13.978;2023-03-02T15:03:25;6.70;73.20
19031;DHT22;9648;51.130;13.978;2023-03-02T15:05:52;6.60;77.70
19031;DHT22;9648;51.130;13.978;2023-03-02T15:08:20;6.60;73.20
19031;DHT22;9648;51.130;13.978;2023-03-02T15:10:47;6.60;74.10
19031;DHT22;9648;51.130;13.978;2023-03-02T15:13:15;6.60;72.20
19031;DHT22;9648;51.130;13.978;2023-03-02T15:15:43;6.50;74.70
19031;DHT22;9648;51.130;13.978;2023-03-02T15:18:11;6.50;76.60
19031;DHT22;9648;51.130;13.978;2023-03-02T15:20:42;6.50;72.20
19031;DHT22;9648;51.130;13.978;2023-03-02T15:23:08;6.40;74.00
19031;DHT22;9648;51.130;13.978;2023-03-02T15:25:35;6.40;78.90
19031;DHT22;9648;51.130;13.978;2023-03-02T15:28:03;6.40;78.60
19031;DHT22;9648;51.130;13.978;2023-03-02T15:30:33;6.30;84.70
19031;DHT22;9648;51.130;13.978;2023-03-02T15:33:01;6.20;88.80
19031;DHT22;9648;51.130;13.978;2023-03-02T15:35:28;6.10;91.20
19031;DHT22;9648;51.130;13.978;2023-03-02T15:37:55;6.10;91.10
19031;DHT22;9648;51.130;13.978;2023-03-02T15:40:25;6.00;89.50
19031;DHT22;9648;51.130;13.978;2023-03-02T15:42:52;5.90;90.30
19031;DHT22;9648;51.130;13.978;2023-03-02T15:45:19;5.90;90.80
19031;DHT22;9648;51.130;13.978;2023-03-02T15:47:46;5.80;89.70
19031;DHT22;9648;51.130;13.978;2023-03-02T15:50:14;5.80;86.10
19031;DHT22;9648;51.130;13.978;2023-03-02T15:52:41;5.80;87.10
19031;DHT22;9648;51.130;13.978;2023-03-02T15:55:08;5.70;88.20